Tustin, CA (92782)

11:45 PM PDT on May 26, 2015 (GMT -0700)
North Tustin | | Change Station
CLOSE
Current Station
Personal Weather Station
Location: North Tustin, CA
Elevation: 157 ft
Nearby Weather Stations

Elev 157 ft 33.75 °N, 117.80 °W | Updated 14 minutes ago

Mostly Cloudy
Mostly Cloudy
62.2 °F
Feels Like 62.2 °F
N
0.0
Wind Variable Wind from SSW
Gusts 4.0 mph

Today
High -- | Low -- °F
--% Chance of Precip.
Yesterday
High -- | Low -- °F
Precip. -- in
5:43 AM 7:52 PM
Waxing Gibbous, 64% visible
Pressure 29.99 in
Visibility 10.0 miles
Clouds Overcast 1700 ft
Dew Point 56 °F
Humidity 79%
Rainfall 0.00 in
Snow Depth Not available.
UV 0 out of 12
Pollen 4.70 out of 12
Air Quality Not available.
Flu Activity Sporadic
METAR KSNA 270553Z 28003KT 10SM OVC017 17/12 A2999 RMK AO2 SLP156 T01670122 10194 20167 51003

More Conditions Fewer Conditions

Pressure 29.99 in
Visibility 10.0 miles
Clouds Overcast 1700 ft
Dew Point 56 °F
Humidity 79%
Rainfall 0.00 in
Snow Depth Not available.
UV 0 out of 12
Pollen 4.70 out of 12
Air Quality Not available.
Flu Activity Sporadic
METAR KSNA 270553Z 28003KT 10SM OVC017 17/12 A2999 RMK AO2 SLP156 T01670122 10194 20167 51003

More Conditions Fewer Conditions

10-Day Weather Forecast

Almanac

Astronomy

May. 26, 2015 Rise Set
Actual Time
Civil Twilight
Nautical Twilight
Astronomical Twilight
Moon
Length of Visible Light
Length of Day
Tomorrow will be .
, % of the Moon is Illuminated

Today's Extremes

State Highs State Lows

Community

WunderPhotos

Upload Photos

1,824,626 photos uploaded!

WunderBlogs® & News

Nearby

Air Quality

  Air Quality AQ Index Pollutant
Not available.

Snow Depth

Station Depth Elevation

Earthquake Activity

City Distance Mag. Time & Date
Minimum magnitude displayed is 2.5.

Coastal Water Temperatures

Place Temperature

Stations

Nearby Weather Stations

Station Location Temp. Windchill Dew Point Humidity Wind Precip. Elev Updated Type